sensor_id;sensor_type;location;lat;lon;timestamp;pressure;altitude;pressure_sealevel;temperature;humidity
11198;BME280;5655;48.744;9.162;2023-08-17T00:00:13;96235.75;;;22.18;100.00
11198;BME280;5655;48.744;9.162;2023-08-17T00:02:42;96239.09;;;22.23;100.00
11198;BME280;5655;48.744;9.162;2023-08-17T00:05:07;96242.72;;;22.20;100.00
11198;BME280;5655;48.744;9.162;2023-08-17T00:07:33;96249.16;;;22.26;100.00
11198;BME280;5655;48.744;9.162;2023-08-17T00:09:59;96244.72;;;22.06;100.00
11198;BME280;5655;48.744;9.162;2023-08-17T00:12:24;96251.72;;;22.07;100.00
11198;BME280;5655;48.744;9.162;2023-08-17T00:14:51;96268.84;;;22.08;100.00
11198;BME280;5655;48.744;9.162;2023-08-17T00:17:16;96266.44;;;21.85;100.00
11198;BME280;5655;48.744;9.162;2023-08-17T00:19:41;96274.19;;;21.86;100.00
11198;BME280;5655;48.744;9.162;2023-08-17T00:22:07;96270.28;;;22.00;100.00
11198;BME280;5655;48.744;9.162;2023-08-17T00:24:32;96261.97;;;22.03;100.00
11198;BME280;5655;48.744;9.162;2023-08-17T00:26:57;96268.31;;;22.00;100.00
11198;BME280;5655;48.744;9.162;2023-08-17T00:29:23;96262.53;;;21.98;100.00
11198;BME280;5655;48.744;9.162;2023-08-17T00:31:48;96256.72;;;21.96;100.00
11198;BME280;5655;48.744;9.162;2023-08-17T00:34:13;96241.47;;;21.99;100.00
11198;BME280;5655;48.744;9.162;2023-08-17T00:36:39;96258.94;;;21.76;100.00
11198;BME280;5655;48.744;9.162;2023-08-17T00:39:04;96261.88;;;21.82;100.00
11198;BME280;5655;48.744;9.162;2023-08-17T00:41:29;96278.53;;;21.71;100.00
11198;BME280;5655;48.744;9.162;2023-08-17T00:43:56;96268.63;;;21.77;100.00
11198;BME280;5655;48.744;9.162;2023-08-17T00:46:21;96258.44;;;22.15;100.00
11198;BME280;5655;48.744;9.162;2023-08-17T00:48:48;96255.00;;;21.77;100.00
11198;BME280;5655;48.744;9.162;2023-08-17T00:51:14;96259.81;;;21.73;100.00
11198;BME280;5655;48.744;9.162;2023-08-17T00:53:40;96268.28;;;21.88;100.00
11198;BME280;5655;48.744;9.162;2023-08-17T00:56:06;96264.06;;;21.74;100.00
11198;BME280;5655;48.744;9.162;2023-08-17T00:58:31;96253.81;;;21.78;100.00
11198;BME280;5655;48.744;9.162;2023-08-17T01:00:58;96257.84;;;21.86;100.00
11198;BME280;5655;48.744;9.162;2023-08-17T01:03:24;96245.41;;;21.85;100.00
11198;BME280;5655;48.744;9.162;2023-08-17T01:05:51;96245.41;;;21.85;100.00
11198;BME280;5655;48.744;9.162;2023-08-17T01:08:16;96245.16;;;22.05;100.00
11198;BME280;5655;48.744;9.162;2023-08-17T01:10:52;96254.34;;;21.98;100.00
11198;BME280;5655;48.744;9.162;2023-08-17T01:13:26;96246.81;;;21.90;100.00
11198;BME280;5655;48.744;9.162;2023-08-17T01:15:56;96246.94;;;21.99;100.00
11198;BME280;5655;48.744;9.162;2023-08-17T01:18:28;96260.56;;;21.99;100.00
11198;BME280;5655;48.744;9.162;2023-08-17T01:20:54;96257.41;;;22.00;100.00
11198;BME280;5655;48.744;9.162;2023-08-17T01:23:20;96269.59;;;21.83;100.00
11198;BME280;5655;48.744;9.162;2023-08-17T01:25:45;96267.97;;;21.73;100.00
11198;BME280;5655;48.744;9.162;2023-08-17T01:28:11;96277.69;;;21.99;100.00
11198;BME280;5655;48.744;9.162;2023-08-17T01:34:05;96275.06;;;22.08;100.00
11198;BME280;5655;48.744;9.162;2023-08-17T01:36:37;96265.09;;;22.14;100.00
11198;BME280;5655;48.744;9.162;2023-08-17T01:39:04;96270.25;;;22.12;100.00
11198;BME280;5655;48.744;9.162;2023-08-17T01:41:30;96264.19;;;22.30;100.00
11198;BME280;5655;48.744;9.162;2023-08-17T01:43:56;96264.19;;;22.30;100.00
11198;BME280;5655;48.744;9.162;2023-08-17T01:46:25;96264.78;;;22.12;100.00
11198;BME280;5655;48.744;9.162;2023-08-17T01:48:53;96253.13;;;22.12;100.00
11198;BME280;5655;48.744;9.162;2023-08-17T01:51:19;96280.50;;;22.08;100.00
11198;BME280;5655;48.744;9.162;2023-08-17T01:53:47;96278.41;;;22.12;100.00
11198;BME280;5655;48.744;9.162;2023-08-17T01:56:13;96281.59;;;21.98;100.00
11198;BME280;5655;48.744;9.162;2023-08-17T01:58:38;96280.38;;;22.12;100.00
11198;BME280;5655;48.744;9.162;2023-08-17T02:01:03;96282.25;;;22.02;100.00
11198;BME280;5655;48.744;9.162;2023-08-17T02:03:29;96275.06;;;21.96;100.00
11198;BME280;5655;48.744;9.162;2023-08-17T02:05:58;96287.06;;;21.98;100.00
11198;BME280;5655;48.744;9.162;2023-08-17T02:08:23;96277.13;;;22.04;100.00
11198;BME280;5655;48.744;9.162;2023-08-17T02:10:49;96283.34;;;21.92;100.00
11198;BME280;5655;48.744;9.162;2023-08-17T02:13:15;96285.53;;;21.97;100.00
11198;BME280;5655;48.744;9.162;2023-08-17T02:15:40;96275.25;;;22.01;100.00
11198;BME280;5655;48.744;9.162;2023-08-17T02:18:06;96267.06;;;22.14;100.00
11198;BME280;5655;48.744;9.162;2023-08-17T02:20:31;96257.16;;;22.07;100.00
11198;BME280;5655;48.744;9.162;2023-08-17T02:22:57;96260.13;;;22.00;100.00
11198;BME280;5655;48.744;9.162;2023-08-17T02:25:22;96272.44;;;21.67;100.00
11198;BME280;5655;48.744;9.162;2023-08-17T02:27:47;96275.94;;;21.80;100.00
11198;BME280;5655;48.744;9.162;2023-08-17T02:30:13;96264.91;;;21.96;100.00
11198;BME280;5655;48.744;9.162;2023-08-17T02:32:39;96275.03;;;21.83;100.00
11198;BME280;5655;48.744;9.162;2023-08-17T02:35:04;96284.34;;;21.73;100.00
11198;BME280;5655;48.744;9.162;2023-08-17T02:37:30;96273.09;;;21.84;100.00
11198;BME280;5655;48.744;9.162;2023-08-17T02:39:55;96269.28;;;21.81;100.00
11198;BME280;5655;48.744;9.162;2023-08-17T02:42:20;96268.09;;;21.82;100.00
11198;BME280;5655;48.744;9.162;2023-08-17T02:44:46;96259.47;;;21.96;100.00
11198;BME280;5655;48.744;9.162;2023-08-17T02:47:12;96254.13;;;21.93;100.00
11198;BME280;5655;48.744;9.162;2023-08-17T02:49:37;96253.69;;;21.94;100.00
11198;BME280;5655;48.744;9.162;2023-08-17T02:52:02;96249.09;;;21.91;100.00
11198;BME280;5655;48.744;9.162;2023-08-17T02:54:28;96252.81;;;21.97;100.00
11198;BME280;5655;48.744;9.162;2023-08-17T02:56:53;96234.94;;;21.96;100.00
11198;BME280;5655;48.744;9.162;2023-08-17T02:59:18;96242.25;;;21.87;100.00
11198;BME280;5655;48.744;9.162;2023-08-17T03:01:45;96238.63;;;22.02;100.00
11198;BME280;5655;48.744;9.162;2023-08-17T03:04:10;96239.75;;;21.92;100.00
11198;BME280;5655;48.744;9.162;2023-08-17T03:06:36;96222.84;;;21.97;100.00
11198;BME280;5655;48.744;9.162;2023-08-17T03:09:01;96221.34;;;22.18;100.00
11198;BME280;5655;48.744;9.162;2023-08-17T03:11:26;96214.09;;;22.02;100.00
11198;BME280;5655;48.744;9.162;2023-08-17T03:13:52;96215.44;;;21.72;100.00
11198;BME280;5655;48.744;9.162;2023-08-17T03:16:19;96222.19;;;21.81;100.00
11198;BME280;5655;48.744;9.162;2023-08-17T03:18:44;96214.34;;;21.95;100.00
11198;BME280;5655;48.744;9.162;2023-08-17T03:21:09;96208.22;;;22.04;100.00
11198;BME280;5655;48.744;9.162;2023-08-17T03:23:35;96195.09;;;22.11;100.00
11198;BME280;5655;48.744;9.162;2023-08-17T03:26:00;96192.31;;;22.24;100.00
11198;BME280;5655;48.744;9.162;2023-08-17T03:28:27;96187.06;;;22.30;100.00
11198;BME280;5655;48.744;9.162;2023-08-17T03:30:55;96185.66;;;22.03;100.00
11198;BME280;5655;48.744;9.162;2023-08-17T03:33:21;96196.34;;;21.85;100.00
11198;BME280;5655;48.744;9.162;2023-08-17T03:35:46;96202.56;;;21.98;100.00
11198;BME280;5655;48.744;9.162;2023-08-17T03:38:12;96190.97;;;22.07;100.00
11198;BME280;5655;48.744;9.162;2023-08-17T03:40:37;96192.38;;;22.11;100.00
11198;BME280;5655;48.744;9.162;2023-08-17T03:43:03;96185.38;;;22.10;100.00
11198;BME280;5655;48.744;9.162;2023-08-17T03:45:29;96193.25;;;22.08;100.00
11198;BME280;5655;48.744;9.162;2023-08-17T03:47:54;96198.84;;;21.92;100.00
11198;BME280;5655;48.744;9.162;2023-08-17T03:50:20;96194.91;;;22.28;100.00
11198;BME280;5655;48.744;9.162;2023-08-17T03:52:45;96190.50;;;22.21;100.00
11198;BME280;5655;48.744;9.162;2023-08-17T03:55:10;96195.91;;;21.99;100.00
11198;BME280;5655;48.744;9.162;2023-08-17T03:57:36;96196.38;;;22.20;100.00
11198;BME280;5655;48.744;9.162;2023-08-17T04:00:01;96197.56;;;22.18;100.00
11198;BME280;5655;48.744;9.162;2023-08-17T04:02:26;96199.91;;;22.07;100.00
11198;BME280;5655;48.744;9.162;2023-08-17T04:04:51;96203.47;;;22.17;100.00
11198;BME280;5655;48.744;9.162;2023-08-17T04:07:21;96206.97;;;22.17;100.00
11198;BME280;5655;48.744;9.162;2023-08-17T04:09:47;96203.59;;;22.13;100.00
11198;BME280;5655;48.744;9.162;2023-08-17T04:12:12;96208.78;;;21.86;100.00
11198;BME280;5655;48.744;9.162;2023-08-17T04:14:38;96215.00;;;21.87;100.00
11198;BME280;5655;48.744;9.162;2023-08-17T04:17:03;96212.69;;;21.85;100.00
11198;BME280;5655;48.744;9.162;2023-08-17T04:19:28;96219.03;;;21.82;100.00
11198;BME280;5655;48.744;9.162;2023-08-17T04:21:53;96217.66;;;22.12;100.00
11198;BME280;5655;48.744;9.162;2023-08-17T04:24:19;96221.53;;;21.77;100.00
11198;BME280;5655;48.744;9.162;2023-08-17T04:26:44;96240.00;;;21.60;100.00
11198;BME280;5655;48.744;9.162;2023-08-17T04:29:09;96251.19;;;21.74;100.00
11198;BME280;5655;48.744;9.162;2023-08-17T04:31:35;96247.13;;;21.79;100.00
11198;BME280;5655;48.744;9.162;2023-08-17T04:34:00;96239.41;;;21.90;100.00
11198;BME280;5655;48.744;9.162;2023-08-17T04:36:25;96242.56;;;21.76;100.00
11198;BME280;5655;48.744;9.162;2023-08-17T04:38:51;96242.03;;;21.81;100.00
11198;BME280;5655;48.744;9.162;2023-08-17T04:41:16;96245.94;;;21.93;100.00
11198;BME280;5655;48.744;9.162;2023-08-17T04:43:42;96245.94;;;21.80;100.00
11198;BME280;5655;48.744;9.162;2023-08-17T04:46:08;96250.31;;;21.78;100.00
11198;BME280;5655;48.744;9.162;2023-08-17T04:48:33;96245.50;;;22.07;100.00
11198;BME280;5655;48.744;9.162;2023-08-17T04:50:58;96249.66;;;21.86;100.00
11198;BME280;5655;48.744;9.162;2023-08-17T04:53:24;96241.44;;;22.11;100.00
11198;BME280;5655;48.744;9.162;2023-08-17T04:55:49;96251.50;;;21.89;100.00
11198;BME280;5655;48.744;9.162;2023-08-17T04:58:14;96246.84;;;21.77;100.00
11198;BME280;5655;48.744;9.162;2023-08-17T05:00:40;96266.59;;;21.56;100.00
11198;BME280;5655;48.744;9.162;2023-08-17T05:03:05;96285.00;;;21.52;100.00
11198;BME280;5655;48.744;9.162;2023-08-17T05:05:30;96284.00;;;21.71;100.00
11198;BME280;5655;48.744;9.162;2023-08-17T05:07:56;96267.88;;;21.64;100.00
11198;BME280;5655;48.744;9.162;2023-08-17T05:10:21;96281.72;;;21.82;100.00
11198;BME280;5655;48.744;9.162;2023-08-17T05:12:46;96267.84;;;21.89;100.00
11198;BME280;5655;48.744;9.162;2023-08-17T05:15:12;96267.75;;;21.93;100.00
11198;BME280;5655;48.744;9.162;2023-08-17T05:17:37;96266.56;;;21.81;100.00
11198;BME280;5655;48.744;9.162;2023-08-17T05:20:03;96265.91;;;21.77;100.00
11198;BME280;5655;48.744;9.162;2023-08-17T05:22:29;96264.38;;;21.76;100.00
11198;BME280;5655;48.744;9.162;2023-08-17T05:24:55;96270.72;;;21.73;100.00
11198;BME280;5655;48.744;9.162;2023-08-17T05:27:20;96273.09;;;21.58;100.00
11198;BME280;5655;48.744;9.162;2023-08-17T05:29:46;96269.63;;;21.58;100.00
11198;BME280;5655;48.744;9.162;2023-08-17T05:32:11;96273.00;;;21.49;100.00
11198;BME280;5655;48.744;9.162;2023-08-17T05:34:36;96268.63;;;21.77;100.00
11198;BME280;5655;48.744;9.162;2023-08-17T05:37:02;96268.31;;;21.50;100.00
11198;BME280;5655;48.744;9.162;2023-08-17T05:39:28;96268.19;;;21.91;100.00
11198;BME280;5655;48.744;9.162;2023-08-17T05:41:53;96249.63;;;22.11;100.00
11198;BME280;5655;48.744;9.162;2023-08-17T05:44:19;96261.69;;;21.51;100.00
11198;BME280;5655;48.744;9.162;2023-08-17T05:46:44;96263.75;;;21.59;100.00
11198;BME280;5655;48.744;9.162;2023-08-17T05:49:09;96271.34;;;21.77;100.00
11198;BME280;5655;48.744;9.162;2023-08-17T05:51:35;96263.72;;;21.97;100.00
11198;BME280;5655;48.744;9.162;2023-08-17T05:54:00;96255.50;;;22.10;100.00
11198;BME280;5655;48.744;9.162;2023-08-17T05:56:25;96244.72;;;22.06;100.00
11198;BME280;5655;48.744;9.162;2023-08-17T05:58:51;96240.38;;;22.31;100.00
11198;BME280;5655;48.744;9.162;2023-08-17T06:01:16;96240.97;;;22.26;100.00
11198;BME280;5655;48.744;9.162;2023-08-17T06:03:41;96241.97;;;22.19;100.00
11198;BME280;5655;48.744;9.162;2023-08-17T06:06:07;96253.41;;;22.14;100.00
11198;BME280;5655;48.744;9.162;2023-08-17T06:08:32;96252.06;;;21.97;100.00
11198;BME280;5655;48.744;9.162;2023-08-17T06:10:58;96244.47;;;22.13;100.00
11198;BME280;5655;48.744;9.162;2023-08-17T06:13:23;96254.19;;;22.14;100.00
11198;BME280;5655;48.744;9.162;2023-08-17T06:15:49;96260.19;;;22.09;100.00
11198;BME280;5655;48.744;9.162;2023-08-17T06:18:14;96251.06;;;22.38;100.00
11198;BME280;5655;48.744;9.162;2023-08-17T06:20:39;96252.06;;;22.31;100.00
11198;BME280;5655;48.744;9.162;2023-08-17T06:23:05;96242.56;;;22.36;100.00
11198;BME280;5655;48.744;9.162;2023-08-17T06:25:30;96244.28;;;22.64;100.00
11198;BME280;5655;48.744;9.162;2023-08-17T06:27:56;96245.59;;;22.38;100.00
11198;BME280;5655;48.744;9.162;2023-08-17T06:30:21;96238.66;;;22.80;100.00
11198;BME280;5655;48.744;9.162;2023-08-17T06:32:47;96230.81;;;22.48;100.00
11198;BME280;5655;48.744;9.162;2023-08-17T06:35:12;96226.88;;;22.49;100.00
11198;BME280;5655;48.744;9.162;2023-08-17T06:37:38;96226.06;;;22.61;100.00
11198;BME280;5655;48.744;9.162;2023-08-17T06:40:04;96226.19;;;22.36;100.00
11198;BME280;5655;48.744;9.162;2023-08-17T06:42:30;96229.84;;;22.76;100.00
11198;BME280;5655;48.744;9.162;2023-08-17T06:44:56;96217.19;;;22.48;100.00
11198;BME280;5655;48.744;9.162;2023-08-17T06:47:21;96229.69;;;22.58;100.00
11198;BME280;5655;48.744;9.162;2023-08-17T06:49:47;96223.22;;;22.65;100.00
11198;BME280;5655;48.744;9.162;2023-08-17T06:52:12;96225.28;;;22.73;100.00
11198;BME280;5655;48.744;9.162;2023-08-17T06:54:38;96218.03;;;22.79;100.00
11198;BME280;5655;48.744;9.162;2023-08-17T06:57:03;96217.78;;;22.86;100.00
11198;BME280;5655;48.744;9.162;2023-08-17T06:59:29;96215.34;;;22.88;100.00
11198;BME280;5655;48.744;9.162;2023-08-17T07:01:54;96219.97;;;23.00;100.00
11198;BME280;5655;48.744;9.162;2023-08-17T07:04:19;96222.69;;;23.00;100.00
11198;BME280;5655;48.744;9.162;2023-08-17T07:06:45;96222.88;;;23.37;100.00
11198;BME280;5655;48.744;9.162;2023-08-17T07:09:10;96224.22;;;23.32;100.00
11198;BME280;5655;48.744;9.162;2023-08-17T07:11:38;96224.75;;;23.49;100.00
11198;BME280;5655;48.744;9.162;2023-08-17T07:14:04;96226.06;;;23.75;100.00
11198;BME280;5655;48.744;9.162;2023-08-17T07:16:31;96219.50;;;23.64;100.00
11198;BME280;5655;48.744;9.162;2023-08-17T07:18:57;96223.50;;;23.41;100.00
11198;BME280;5655;48.744;9.162;2023-08-17T07:21:22;96227.81;;;23.60;100.00
11198;BME280;5655;48.744;9.162;2023-08-17T07:23:47;96224.47;;;23.56;100.00
11198;BME280;5655;48.744;9.162;2023-08-17T07:26:13;96216.31;;;23.25;100.00
11198;BME280;5655;48.744;9.162;2023-08-17T07:28:38;96230.72;;;23.66;100.00
11198;BME280;5655;48.744;9.162;2023-08-17T07:31:03;96220.44;;;23.39;100.00
11198;BME280;5655;48.744;9.162;2023-08-17T07:33:31;96218.47;;;23.79;100.00
11198;BME280;5655;48.744;9.162;2023-08-17T07:35:56;96208.59;;;23.82;100.00
11198;BME280;5655;48.744;9.162;2023-08-17T07:38:23;96209.63;;;23.66;100.00
11198;BME280;5655;48.744;9.162;2023-08-17T07:40:48;96219.72;;;24.06;100.00
11198;BME280;5655;48.744;9.162;2023-08-17T07:43:14;96220.63;;;23.93;100.00
11198;BME280;5655;48.744;9.162;2023-08-17T07:45:39;96220.00;;;23.89;100.00
11198;BME280;5655;48.744;9.162;2023-08-17T07:48:04;96224.28;;;24.09;100.00
11198;BME280;5655;48.744;9.162;2023-08-17T07:50:30;96220.38;;;24.19;100.00
11198;BME280;5655;48.744;9.162;2023-08-17T07:52:55;96220.66;;;24.48;100.00
11198;BME280;5655;48.744;9.162;2023-08-17T07:55:20;96220.97;;;24.41;100.00
11198;BME280;5655;48.744;9.162;2023-08-17T07:57:46;96218.06;;;24.63;100.00
11198;BME280;5655;48.744;9.162;2023-08-17T08:00:11;96215.47;;;24.68;100.00
11198;BME280;5655;48.744;9.162;2023-08-17T08:02:37;96223.50;;;24.90;100.00
11198;BME280;5655;48.744;9.162;2023-08-17T08:05:02;96214.56;;;24.62;100.00
11198;BME280;5655;48.744;9.162;2023-08-17T08:07:28;96219.44;;;24.67;100.00
11198;BME280;5655;48.744;9.162;2023-08-17T08:09:53;96217.13;;;24.93;100.00
11198;BME280;5655;48.744;9.162;2023-08-17T08:12:18;96228.78;;;25.12;100.00
11198;BME280;5655;48.744;9.162;2023-08-17T08:14:43;96227.28;;;25.11;100.00
11198;BME280;5655;48.744;9.162;2023-08-17T08:17:09;96231.44;;;25.39;100.00
11198;BME280;5655;48.744;9.162;2023-08-17T08:19:34;96218.09;;;25.23;100.00
11198;BME280;5655;48.744;9.162;2023-08-17T08:22:00;96224.53;;;25.11;100.00
11198;BME280;5655;48.744;9.162;2023-08-17T08:24:26;96226.41;;;25.38;100.00
11198;BME280;5655;48.744;9.162;2023-08-17T08:26:56;96222.91;;;25.37;100.00
11198;BME280;5655;48.744;9.162;2023-08-17T08:29:21;96218.66;;;25.36;100.00
11198;BME280;5655;48.744;9.162;2023-08-17T08:31:46;96222.84;;;25.55;100.00
11198;BME280;5655;48.744;9.162;2023-08-17T08:34:12;96227.06;;;25.65;100.00
11198;BME280;5655;48.744;9.162;2023-08-17T08:36:37;96220.13;;;25.46;100.00
11198;BME280;5655;48.744;9.162;2023-08-17T08:39:02;96220.19;;;25.70;100.00
11198;BME280;5655;48.744;9.162;2023-08-17T08:41:29;96228.19;;;25.83;100.00
11198;BME280;5655;48.744;9.162;2023-08-17T08:43:54;96212.69;;;25.38;100.00
11198;BME280;5655;48.744;9.162;2023-08-17T08:46:20;96229.19;;;25.70;100.00
11198;BME280;5655;48.744;9.162;2023-08-17T08:48:50;96225.81;;;25.76;100.00
11198;BME280;5655;48.744;9.162;2023-08-17T08:51:22;96229.38;;;26.14;100.00
11198;BME280;5655;48.744;9.162;2023-08-17T08:54:00;96240.94;;;26.18;100.00
11198;BME280;5655;48.744;9.162;2023-08-17T08:56:29;96231.34;;;26.14;100.00
11198;BME280;5655;48.744;9.162;2023-08-17T08:58:57;96243.56;;;26.13;100.00
11198;BME280;5655;48.744;9.162;2023-08-17T09:01:24;96231.09;;;26.50;100.00
11198;BME280;5655;48.744;9.162;2023-08-17T09:03:50;96232.16;;;25.82;100.00
11198;BME280;5655;48.744;9.162;2023-08-17T09:06:16;96238.63;;;26.41;100.00
11198;BME280;5655;48.744;9.162;2023-08-17T09:08:42;96243.28;;;26.49;100.00
11198;BME280;5655;48.744;9.162;2023-08-17T09:11:08;96255.44;;;26.57;100.00
11198;BME280;5655;48.744;9.162;2023-08-17T09:13:34;96241.59;;;26.67;100.00
11198;BME280;5655;48.744;9.162;2023-08-17T09:15:59;96238.06;;;26.90;100.00
11198;BME280;5655;48.744;9.162;2023-08-17T09:18:26;96239.97;;;26.98;100.00
11198;BME280;5655;48.744;9.162;2023-08-17T09:20:52;96248.31;;;26.89;100.00
11198;BME280;5655;48.744;9.162;2023-08-17T09:23:21;96252.59;;;27.05;100.00
11198;BME280;5655;48.744;9.162;2023-08-17T09:25:48;96264.38;;;27.40;100.00
11198;BME280;5655;48.744;9.162;2023-08-17T09:28:15;96261.94;;;27.42;100.00
11198;BME280;5655;48.744;9.162;2023-08-17T09:30:54;96277.44;;;27.75;100.00
11198;BME280;5655;48.744;9.162;2023-08-17T09:33:21;96282.19;;;27.74;100.00
11198;BME280;5655;48.744;9.162;2023-08-17T09:35:48;96261.75;;;27.61;100.00
11198;BME280;5655;48.744;9.162;2023-08-17T09:38:13;96271.94;;;27.75;100.00
11198;BME280;5655;48.744;9.162;2023-08-17T09:40:39;96273.63;;;27.87;100.00
11198;BME280;5655;48.744;9.162;2023-08-17T09:43:04;96261.53;;;27.64;100.00
11198;BME280;5655;48.744;9.162;2023-08-17T09:45:30;96276.94;;;28.26;100.00
11198;BME280;5655;48.744;9.162;2023-08-17T09:47:58;96272.66;;;28.45;100.00
11198;BME280;5655;48.744;9.162;2023-08-17T09:50:24;96282.16;;;28.44;100.00
11198;BME280;5655;48.744;9.162;2023-08-17T09:52:53;96284.66;;;28.42;100.00
11198;BME280;5655;48.744;9.162;2023-08-17T09:55:21;96283.88;;;28.41;100.00
11198;BME280;5655;48.744;9.162;2023-08-17T09:57:50;96284.56;;;28.57;100.00
11198;BME280;5655;48.744;9.162;2023-08-17T10:00:17;96287.88;;;28.81;100.00
11198;BME280;5655;48.744;9.162;2023-08-17T10:02:44;96279.66;;;28.86;100.00
11198;BME280;5655;48.744;9.162;2023-08-17T10:05:11;96284.75;;;28.94;100.00
11198;BME280;5655;48.744;9.162;2023-08-17T10:07:39;96282.47;;;28.92;100.00
11198;BME280;5655;48.744;9.162;2023-08-17T10:10:06;96278.03;;;29.00;100.00
11198;BME280;5655;48.744;9.162;2023-08-17T10:12:37;96277.25;;;28.74;100.00
11198;BME280;5655;48.744;9.162;2023-08-17T10:15:10;96274.31;;;29.03;100.00
11198;BME280;5655;48.744;9.162;2023-08-17T10:17:54;96264.09;;;29.09;100.00
11198;BME280;5655;48.744;9.162;2023-08-17T10:20:20;96280.41;;;28.67;100.00
11198;BME280;5655;48.744;9.162;2023-08-17T10:22:53;96278.03;;;28.74;100.00
11198;BME280;5655;48.744;9.162;2023-08-17T10:25:21;96276.84;;;28.81;100.00
11198;BME280;5655;48.744;9.162;2023-08-17T10:27:48;96273.06;;;29.04;100.00
11198;BME280;5655;48.744;9.162;2023-08-17T10:30:14;96271.66;;;28.89;100.00
11198;BME280;5655;48.744;9.162;2023-08-17T10:32:40;96265.50;;;29.25;100.00
11198;BME280;5655;48.744;9.162;2023-08-17T10:35:10;96272.41;;;29.41;100.00
11198;BME280;5655;48.744;9.162;2023-08-17T10:37:37;96269.44;;;29.81;100.00
11198;BME280;5655;48.744;9.162;2023-08-17T10:40:04;96272.88;;;30.07;100.00
11198;BME280;5655;48.744;9.162;2023-08-17T10:42:30;96274.38;;;30.08;100.00
11198;BME280;5655;48.744;9.162;2023-08-17T10:44:57;96267.34;;;30.07;100.00
11198;BME280;5655;48.744;9.162;2023-08-17T10:50:21;96279.78;;;30.34;100.00
11198;BME280;5655;48.744;9.162;2023-08-17T10:52:48;96274.34;;;30.51;100.00
11198;BME280;5655;48.744;9.162;2023-08-17T10:55:13;96277.13;;;30.51;100.00
11198;BME280;5655;48.744;9.162;2023-08-17T10:57:40;96267.16;;;30.81;100.00
11198;BME280;5655;48.744;9.162;2023-08-17T11:00:22;96268.78;;;30.40;100.00
11198;BME280;5655;48.744;9.162;2023-08-17T11:02:58;96274.19;;;30.71;100.00
11198;BME280;5655;48.744;9.162;2023-08-17T11:08:02;96268.44;;;30.80;100.00
11198;BME280;5655;48.744;9.162;2023-08-17T11:10:29;96269.19;;;30.86;100.00
11198;BME280;5655;48.744;9.162;2023-08-17T11:12:55;96263.22;;;31.16;100.00
11198;BME280;5655;48.744;9.162;2023-08-17T11:15:25;96269.28;;;31.42;100.00
11198;BME280;5655;48.744;9.162;2023-08-17T11:17:50;96261.25;;;31.44;100.00
11198;BME280;5655;48.744;9.162;2023-08-17T11:20:16;96259.97;;;31.45;100.00
11198;BME280;5655;48.744;9.162;2023-08-17T11:22:41;96255.72;;;31.61;100.00
11198;BME280;5655;48.744;9.162;2023-08-17T11:25:07;96255.16;;;32.01;100.00
11198;BME280;5655;48.744;9.162;2023-08-17T11:27:33;96250.88;;;32.00;100.00
11198;BME280;5655;48.744;9.162;2023-08-17T11:29:58;96261.25;;;31.55;100.00
11198;BME280;5655;48.744;9.162;2023-08-17T11:32:24;96254.97;;;31.71;100.00
11198;BME280;5655;48.744;9.162;2023-08-17T11:34:49;96248.88;;;31.50;100.00
11198;BME280;5655;48.744;9.162;2023-08-17T11:37:16;96248.16;;;31.67;100.00
11198;BME280;5655;48.744;9.162;2023-08-17T11:39:41;96241.78;;;32.05;100.00
11198;BME280;5655;48.744;9.162;2023-08-17T11:42:06;96245.06;;;31.98;100.00
11198;BME280;5655;48.744;9.162;2023-08-17T11:44:33;96250.00;;;32.33;100.00
11198;BME280;5655;48.744;9.162;2023-08-17T11:46:58;96254.38;;;32.17;100.00
11198;BME280;5655;48.744;9.162;2023-08-17T11:49:24;96249.34;;;31.93;100.00
11198;BME280;5655;48.744;9.162;2023-08-17T11:51:51;96250.09;;;32.00;100.00
11198;BME280;5655;48.744;9.162;2023-08-17T11:54:16;96252.38;;;32.12;100.00
11198;BME280;5655;48.744;9.162;2023-08-17T11:56:42;96249.03;;;32.25;100.00
11198;BME280;5655;48.744;9.162;2023-08-17T11:59:11;96257.38;;;32.19;100.00
11198;BME280;5655;48.744;9.162;2023-08-17T12:01:39;96262.22;;;31.96;100.00
11198;BME280;5655;48.744;9.162;2023-08-17T12:04:06;96263.72;;;31.86;100.00
11198;BME280;5655;48.744;9.162;2023-08-17T12:06:31;96268.00;;;31.76;100.00
11198;BME280;5655;48.744;9.162;2023-08-17T12:08:57;96279.59;;;31.80;100.00
11198;BME280;5655;48.744;9.162;2023-08-17T12:11:25;96271.81;;;31.73;100.00
11198;BME280;5655;48.744;9.162;2023-08-17T12:13:52;96281.13;;;31.59;100.00
11198;BME280;5655;48.744;9.162;2023-08-17T12:16:18;96277.59;;;31.47;100.00
11198;BME280;5655;48.744;9.162;2023-08-17T12:18:52;96284.59;;;31.54;100.00
11198;BME280;5655;48.744;9.162;2023-08-17T12:21:25;96287.88;;;31.47;100.00
11198;BME280;5655;48.744;9.162;2023-08-17T12:23:51;96280.59;;;31.27;100.00
11198;BME280;5655;48.744;9.162;2023-08-17T12:26:20;96278.84;;;31.19;100.00
11198;BME280;5655;48.744;9.162;2023-08-17T12:28:46;96271.72;;;30.84;100.00
11198;BME280;5655;48.744;9.162;2023-08-17T12:31:11;96266.19;;;30.95;100.00
11198;BME280;5655;48.744;9.162;2023-08-17T12:33:36;96268.69;;;30.82;100.00
11198;BME280;5655;48.744;9.162;2023-08-17T12:36:02;96274.91;;;30.60;100.00
11198;BME280;5655;48.744;9.162;2023-08-17T12:38:27;96263.09;;;30.60;100.00
11198;BME280;5655;48.744;9.162;2023-08-17T12:40:53;96260.06;;;30.58;100.00
11198;BME280;5655;48.744;9.162;2023-08-17T12:43:18;96269.28;;;30.44;100.00
11198;BME280;5655;48.744;9.162;2023-08-17T12:45:44;96270.44;;;30.20;100.00
11198;BME280;5655;48.744;9.162;2023-08-17T12:48:09;96276.91;;;30.06;100.00
11198;BME280;5655;48.744;9.162;2023-08-17T12:50:34;96275.72;;;29.82;100.00
11198;BME280;5655;48.744;9.162;2023-08-17T12:53:00;96273.53;;;29.91;100.00
11198;BME280;5655;48.744;9.162;2023-08-17T12:55:25;96276.44;;;29.77;100.00
11198;BME280;5655;48.744;9.162;2023-08-17T12:57:50;96282.09;;;29.62;100.00
11198;BME280;5655;48.744;9.162;2023-08-17T13:00:16;96270.53;;;29.58;100.00
11198;BME280;5655;48.744;9.162;2023-08-17T13:02:41;96266.63;;;29.39;100.00